sensor_id;sensor_type;location;lat;lon;timestamp;P1;durP1;ratioP1;P2;durP2;ratioP2
8895;SDS011;4484;48.928;10.066;2024-03-22T00:01:45;5.73;;;3.70;;
8895;SDS011;4484;48.928;10.066;2024-03-22T00:04:11;8.57;;;3.90;;
8895;SDS011;4484;48.928;10.066;2024-03-22T00:06:41;4.70;;;3.27;;
8895;SDS011;4484;48.928;10.066;2024-03-22T00:09:07;5.20;;;3.57;;
8895;SDS011;4484;48.928;10.066;2024-03-22T00:11:34;4.03;;;3.00;;
8895;SDS011;4484;48.928;10.066;2024-03-22T00:14:01;4.10;;;3.13;;
8895;SDS011;4484;48.928;10.066;2024-03-22T00:16:27;3.90;;;3.03;;
8895;SDS011;4484;48.928;10.066;2024-03-22T00:18:53;5.80;;;3.37;;
8895;SDS011;4484;48.928;10.066;2024-03-22T00:21:20;3.03;;;2.60;;
8895;SDS011;4484;48.928;10.066;2024-03-22T00:23:47;4.17;;;3.37;;
8895;SDS011;4484;48.928;10.066;2024-03-22T00:26:12;3.83;;;3.20;;
8895;SDS011;4484;48.928;10.066;2024-03-22T00:28:38;3.93;;;3.00;;
8895;SDS011;4484;48.928;10.066;2024-03-22T00:31:04;4.00;;;3.53;;
8895;SDS011;4484;48.928;10.066;2024-03-22T00:33:34;3.47;;;3.13;;
8895;SDS011;4484;48.928;10.066;2024-03-22T00:36:00;4.20;;;3.20;;
8895;SDS011;4484;48.928;10.066;2024-03-22T00:38:26;4.50;;;3.50;;
8895;SDS011;4484;48.928;10.066;2024-03-22T00:40:52;3.77;;;2.97;;
8895;SDS011;4484;48.928;10.066;2024-03-22T00:43:18;4.93;;;3.37;;
8895;SDS011;4484;48.928;10.066;2024-03-22T00:45:44;3.67;;;2.83;;
8895;SDS011;4484;48.928;10.066;2024-03-22T00:48:10;4.80;;;3.70;;
8895;SDS011;4484;48.928;10.066;2024-03-22T00:50:36;10.43;;;6.90;;
8895;SDS011;4484;48.928;10.066;2024-03-22T00:53:02;5.60;;;4.40;;
8895;SDS011;4484;48.928;10.066;2024-03-22T00:55:29;7.83;;;5.10;;
8895;SDS011;4484;48.928;10.066;2024-03-22T00:57:55;6.13;;;4.20;;
8895;SDS011;4484;48.928;10.066;2024-03-22T01:00:21;6.50;;;4.47;;
8895;SDS011;4484;48.928;10.066;2024-03-22T01:02:46;5.20;;;3.40;;
8895;SDS011;4484;48.928;10.066;2024-03-22T01:05:13;5.60;;;4.20;;
8895;SDS011;4484;48.928;10.066;2024-03-22T01:07:40;5.00;;;3.60;;
8895;SDS011;4484;48.928;10.066;2024-03-22T01:10:06;6.33;;;4.07;;
8895;SDS011;4484;48.928;10.066;2024-03-22T01:12:32;4.00;;;3.40;;
8895;SDS011;4484;48.928;10.066;2024-03-22T01:14:58;4.77;;;3.50;;
8895;SDS011;4484;48.928;10.066;2024-03-22T01:17:24;6.47;;;3.80;;
8895;SDS011;4484;48.928;10.066;2024-03-22T01:19:50;3.77;;;3.37;;
8895;SDS011;4484;48.928;10.066;2024-03-22T01:22:17;4.57;;;3.43;;
8895;SDS011;4484;48.928;10.066;2024-03-22T01:24:43;5.13;;;3.53;;
8895;SDS011;4484;48.928;10.066;2024-03-22T01:27:10;4.13;;;3.20;;
8895;SDS011;4484;48.928;10.066;2024-03-22T01:29:36;4.07;;;3.53;;
8895;SDS011;4484;48.928;10.066;2024-03-22T01:32:02;4.80;;;3.90;;
8895;SDS011;4484;48.928;10.066;2024-03-22T01:34:28;3.90;;;3.07;;
8895;SDS011;4484;48.928;10.066;2024-03-22T01:36:54;5.57;;;4.40;;
8895;SDS011;4484;48.928;10.066;2024-03-22T01:39:20;5.27;;;4.30;;
8895;SDS011;4484;48.928;10.066;2024-03-22T01:41:47;6.47;;;4.50;;
8895;SDS011;4484;48.928;10.066;2024-03-22T01:44:13;5.53;;;4.60;;
8895;SDS011;4484;48.928;10.066;2024-03-22T01:46:40;5.53;;;4.07;;
8895;SDS011;4484;48.928;10.066;2024-03-22T01:49:07;5.20;;;4.07;;
8895;SDS011;4484;48.928;10.066;2024-03-22T01:51:34;5.67;;;3.80;;
8895;SDS011;4484;48.928;10.066;2024-03-22T01:54:01;4.97;;;3.80;;
8895;SDS011;4484;48.928;10.066;2024-03-22T01:56:28;4.47;;;3.40;;
8895;SDS011;4484;48.928;10.066;2024-03-22T01:58:55;5.70;;;3.97;;
8895;SDS011;4484;48.928;10.066;2024-03-22T02:01:22;4.53;;;3.70;;
8895;SDS011;4484;48.928;10.066;2024-03-22T02:03:48;4.87;;;3.70;;
8895;SDS011;4484;48.928;10.066;2024-03-22T02:06:14;4.47;;;3.67;;
8895;SDS011;4484;48.928;10.066;2024-03-22T02:08:40;5.03;;;4.03;;
8895;SDS011;4484;48.928;10.066;2024-03-22T02:11:07;5.70;;;4.37;;
8895;SDS011;4484;48.928;10.066;2024-03-22T02:13:34;5.73;;;4.50;;
8895;SDS011;4484;48.928;10.066;2024-03-22T02:16:03;5.10;;;4.40;;
8895;SDS011;4484;48.928;10.066;2024-03-22T02:18:29;6.23;;;5.10;;
8895;SDS011;4484;48.928;10.066;2024-03-22T02:20:56;5.80;;;4.50;;
8895;SDS011;4484;48.928;10.066;2024-03-22T02:23:35;6.83;;;4.40;;
8895;SDS011;4484;48.928;10.066;2024-03-22T02:26:02;8.03;;;5.07;;
8895;SDS011;4484;48.928;10.066;2024-03-22T02:28:30;6.93;;;5.20;;
8895;SDS011;4484;48.928;10.066;2024-03-22T02:30:57;10.03;;;5.60;;
8895;SDS011;4484;48.928;10.066;2024-03-22T02:33:24;9.57;;;4.70;;
8895;SDS011;4484;48.928;10.066;2024-03-22T02:35:50;5.67;;;4.43;;
8895;SDS011;4484;48.928;10.066;2024-03-22T02:38:16;8.33;;;4.97;;
8895;SDS011;4484;48.928;10.066;2024-03-22T02:40:43;5.93;;;4.50;;
8895;SDS011;4484;48.928;10.066;2024-03-22T02:43:10;6.10;;;4.47;;
8895;SDS011;4484;48.928;10.066;2024-03-22T02:45:36;10.17;;;5.80;;
8895;SDS011;4484;48.928;10.066;2024-03-22T02:48:02;8.87;;;5.83;;
8895;SDS011;4484;48.928;10.066;2024-03-22T02:50:33;10.27;;;5.77;;
8895;SDS011;4484;48.928;10.066;2024-03-22T02:52:59;10.00;;;6.30;;
8895;SDS011;4484;48.928;10.066;2024-03-22T02:55:25;8.30;;;5.23;;
8895;SDS011;4484;48.928;10.066;2024-03-22T02:57:51;8.03;;;5.07;;
8895;SDS011;4484;48.928;10.066;2024-03-22T03:00:17;6.87;;;4.60;;
8895;SDS011;4484;48.928;10.066;2024-03-22T03:02:44;7.20;;;4.70;;
8895;SDS011;4484;48.928;10.066;2024-03-22T03:05:10;6.47;;;3.70;;
8895;SDS011;4484;48.928;10.066;2024-03-22T03:07:36;6.17;;;4.40;;
8895;SDS011;4484;48.928;10.066;2024-03-22T03:10:02;4.57;;;3.73;;
8895;SDS011;4484;48.928;10.066;2024-03-22T03:12:28;5.40;;;3.70;;
8895;SDS011;4484;48.928;10.066;2024-03-22T03:14:54;6.37;;;4.23;;
8895;SDS011;4484;48.928;10.066;2024-03-22T03:17:20;5.17;;;3.87;;
8895;SDS011;4484;48.928;10.066;2024-03-22T03:19:46;5.53;;;4.00;;
8895;SDS011;4484;48.928;10.066;2024-03-22T03:22:13;7.20;;;4.57;;
8895;SDS011;4484;48.928;10.066;2024-03-22T03:24:39;6.20;;;3.63;;
8895;SDS011;4484;48.928;10.066;2024-03-22T03:27:05;5.43;;;4.00;;
8895;SDS011;4484;48.928;10.066;2024-03-22T03:29:31;4.33;;;3.23;;
8895;SDS011;4484;48.928;10.066;2024-03-22T03:31:56;5.77;;;3.50;;
8895;SDS011;4484;48.928;10.066;2024-03-22T03:34:22;7.30;;;4.20;;
8895;SDS011;4484;48.928;10.066;2024-03-22T03:36:48;6.33;;;3.73;;
8895;SDS011;4484;48.928;10.066;2024-03-22T03:39:14;5.27;;;4.00;;
8895;SDS011;4484;48.928;10.066;2024-03-22T03:41:40;5.50;;;4.00;;
8895;SDS011;4484;48.928;10.066;2024-03-22T03:44:06;6.73;;;4.23;;
8895;SDS011;4484;48.928;10.066;2024-03-22T03:46:32;6.43;;;4.50;;
8895;SDS011;4484;48.928;10.066;2024-03-22T03:48:58;7.77;;;4.43;;
8895;SDS011;4484;48.928;10.066;2024-03-22T03:51:24;5.10;;;3.57;;
8895;SDS011;4484;48.928;10.066;2024-03-22T03:53:49;5.93;;;3.53;;
8895;SDS011;4484;48.928;10.066;2024-03-22T03:56:15;3.83;;;2.90;;
8895;SDS011;4484;48.928;10.066;2024-03-22T03:58:41;5.53;;;3.50;;
8895;SDS011;4484;48.928;10.066;2024-03-22T04:01:07;5.43;;;3.73;;
8895;SDS011;4484;48.928;10.066;2024-03-22T04:03:34;3.63;;;3.00;;
8895;SDS011;4484;48.928;10.066;2024-03-22T04:06:00;4.50;;;3.27;;
8895;SDS011;4484;48.928;10.066;2024-03-22T04:08:26;3.83;;;3.00;;
8895;SDS011;4484;48.928;10.066;2024-03-22T04:10:53;4.17;;;2.97;;
8895;SDS011;4484;48.928;10.066;2024-03-22T04:13:22;5.00;;;3.30;;
8895;SDS011;4484;48.928;10.066;2024-03-22T04:15:49;3.93;;;2.90;;
8895;SDS011;4484;48.928;10.066;2024-03-22T04:18:14;4.00;;;3.20;;
8895;SDS011;4484;48.928;10.066;2024-03-22T04:20:40;3.60;;;3.13;;
8895;SDS011;4484;48.928;10.066;2024-03-22T04:23:06;4.53;;;3.13;;
8895;SDS011;4484;48.928;10.066;2024-03-22T04:25:32;4.47;;;2.93;;
8895;SDS011;4484;48.928;10.066;2024-03-22T04:27:58;3.20;;;2.60;;
8895;SDS011;4484;48.928;10.066;2024-03-22T04:30:24;4.67;;;3.40;;
8895;SDS011;4484;48.928;10.066;2024-03-22T04:32:50;4.80;;;3.20;;
8895;SDS011;4484;48.928;10.066;2024-03-22T04:35:15;5.70;;;3.23;;
8895;SDS011;4484;48.928;10.066;2024-03-22T04:37:41;4.63;;;3.43;;
8895;SDS011;4484;48.928;10.066;2024-03-22T04:40:07;6.80;;;4.03;;
8895;SDS011;4484;48.928;10.066;2024-03-22T04:42:35;4.50;;;3.50;;
8895;SDS011;4484;48.928;10.066;2024-03-22T04:45:01;5.03;;;3.87;;
8895;SDS011;4484;48.928;10.066;2024-03-22T04:47:27;7.47;;;4.10;;
8895;SDS011;4484;48.928;10.066;2024-03-22T04:49:53;7.47;;;4.00;;
8895;SDS011;4484;48.928;10.066;2024-03-22T04:52:19;8.10;;;4.67;;
8895;SDS011;4484;48.928;10.066;2024-03-22T04:54:45;5.17;;;3.73;;
8895;SDS011;4484;48.928;10.066;2024-03-22T04:57:12;9.17;;;5.40;;
8895;SDS011;4484;48.928;10.066;2024-03-22T04:59:38;8.03;;;4.93;;
8895;SDS011;4484;48.928;10.066;2024-03-22T05:02:04;5.60;;;4.00;;
8895;SDS011;4484;48.928;10.066;2024-03-22T05:04:30;5.30;;;3.97;;
8895;SDS011;4484;48.928;10.066;2024-03-22T05:06:56;7.93;;;4.53;;
8895;SDS011;4484;48.928;10.066;2024-03-22T05:09:22;7.43;;;4.60;;
8895;SDS011;4484;48.928;10.066;2024-03-22T05:11:48;8.23;;;5.10;;
8895;SDS011;4484;48.928;10.066;2024-03-22T05:14:16;6.43;;;4.47;;
8895;SDS011;4484;48.928;10.066;2024-03-22T05:16:44;7.07;;;4.67;;
8895;SDS011;4484;48.928;10.066;2024-03-22T05:19:10;6.40;;;4.60;;
8895;SDS011;4484;48.928;10.066;2024-03-22T05:21:36;7.50;;;5.17;;
8895;SDS011;4484;48.928;10.066;2024-03-22T05:24:02;6.47;;;4.90;;
8895;SDS011;4484;48.928;10.066;2024-03-22T05:26:28;8.13;;;4.70;;
8895;SDS011;4484;48.928;10.066;2024-03-22T05:28:57;8.90;;;4.67;;
8895;SDS011;4484;48.928;10.066;2024-03-22T05:31:23;6.97;;;4.80;;
8895;SDS011;4484;48.928;10.066;2024-03-22T05:33:49;6.33;;;4.67;;
8895;SDS011;4484;48.928;10.066;2024-03-22T05:36:15;7.33;;;4.60;;
8895;SDS011;4484;48.928;10.066;2024-03-22T05:38:40;5.57;;;3.97;;
8895;SDS011;4484;48.928;10.066;2024-03-22T05:41:06;6.03;;;4.40;;
8895;SDS011;4484;48.928;10.066;2024-03-22T05:43:32;6.07;;;4.77;;
8895;SDS011;4484;48.928;10.066;2024-03-22T05:45:58;6.23;;;4.33;;
8895;SDS011;4484;48.928;10.066;2024-03-22T05:48:24;6.30;;;4.30;;
8895;SDS011;4484;48.928;10.066;2024-03-22T05:50:51;5.57;;;4.30;;
8895;SDS011;4484;48.928;10.066;2024-03-22T05:53:18;6.30;;;4.40;;
8895;SDS011;4484;48.928;10.066;2024-03-22T05:55:43;5.90;;;4.23;;
8895;SDS011;4484;48.928;10.066;2024-03-22T05:58:09;5.43;;;4.13;;
8895;SDS011;4484;48.928;10.066;2024-03-22T06:00:35;7.63;;;5.10;;
8895;SDS011;4484;48.928;10.066;2024-03-22T06:03:01;8.90;;;5.77;;
8895;SDS011;4484;48.928;10.066;2024-03-22T06:05:27;10.40;;;6.60;;
8895;SDS011;4484;48.928;10.066;2024-03-22T06:07:53;10.57;;;6.93;;
8895;SDS011;4484;48.928;10.066;2024-03-22T06:10:19;9.07;;;5.87;;
8895;SDS011;4484;48.928;10.066;2024-03-22T06:12:44;9.70;;;6.30;;
8895;SDS011;4484;48.928;10.066;2024-03-22T06:15:12;13.77;;;7.77;;
8895;SDS011;4484;48.928;10.066;2024-03-22T06:17:38;15.70;;;9.53;;
8895;SDS011;4484;48.928;10.066;2024-03-22T06:20:04;19.77;;;10.83;;
8895;SDS011;4484;48.928;10.066;2024-03-22T06:22:31;19.33;;;10.63;;
8895;SDS011;4484;48.928;10.066;2024-03-22T06:24:57;24.87;;;11.67;;
8895;SDS011;4484;48.928;10.066;2024-03-22T06:27:22;21.03;;;12.30;;
8895;SDS011;4484;48.928;10.066;2024-03-22T06:29:48;23.20;;;13.70;;
8895;SDS011;4484;48.928;10.066;2024-03-22T06:32:15;25.80;;;13.70;;
8895;SDS011;4484;48.928;10.066;2024-03-22T06:34:41;34.00;;;17.03;;
8895;SDS011;4484;48.928;10.066;2024-03-22T06:37:07;39.37;;;19.00;;
8895;SDS011;4484;48.928;10.066;2024-03-22T06:39:32;43.03;;;19.43;;
8895;SDS011;4484;48.928;10.066;2024-03-22T06:41:58;52.03;;;23.07;;
8895;SDS011;4484;48.928;10.066;2024-03-22T06:44:24;43.50;;;22.63;;
8895;SDS011;4484;48.928;10.066;2024-03-22T06:46:50;37.63;;;19.93;;
8895;SDS011;4484;48.928;10.066;2024-03-22T06:49:16;32.43;;;18.73;;
8895;SDS011;4484;48.928;10.066;2024-03-22T06:51:42;35.93;;;19.87;;
8895;SDS011;4484;48.928;10.066;2024-03-22T06:54:08;34.30;;;19.57;;
8895;SDS011;4484;48.928;10.066;2024-03-22T06:56:34;30.67;;;17.83;;
8895;SDS011;4484;48.928;10.066;2024-03-22T06:59:00;23.83;;;16.67;;
8895;SDS011;4484;48.928;10.066;2024-03-22T07:01:26;26.00;;;15.30;;
8895;SDS011;4484;48.928;10.066;2024-03-22T07:03:51;17.80;;;13.10;;
8895;SDS011;4484;48.928;10.066;2024-03-22T07:06:18;16.63;;;11.83;;
8895;SDS011;4484;48.928;10.066;2024-03-22T07:08:44;14.67;;;11.00;;
8895;SDS011;4484;48.928;10.066;2024-03-22T07:11:09;18.57;;;12.27;;
8895;SDS011;4484;48.928;10.066;2024-03-22T07:13:35;17.40;;;11.30;;
8895;SDS011;4484;48.928;10.066;2024-03-22T07:16:01;16.00;;;11.30;;
8895;SDS011;4484;48.928;10.066;2024-03-22T07:18:28;19.77;;;10.70;;
8895;SDS011;4484;48.928;10.066;2024-03-22T07:20:54;18.23;;;11.67;;
8895;SDS011;4484;48.928;10.066;2024-03-22T07:23:20;12.90;;;9.43;;
8895;SDS011;4484;48.928;10.066;2024-03-22T07:25:46;14.30;;;10.57;;
8895;SDS011;4484;48.928;10.066;2024-03-22T07:28:14;12.50;;;9.00;;
8895;SDS011;4484;48.928;10.066;2024-03-22T07:30:41;17.93;;;11.47;;
8895;SDS011;4484;48.928;10.066;2024-03-22T07:33:07;15.63;;;10.00;;
8895;SDS011;4484;48.928;10.066;2024-03-22T07:35:34;13.90;;;9.60;;
8895;SDS011;4484;48.928;10.066;2024-03-22T07:38:00;15.10;;;8.77;;
8895;SDS011;4484;48.928;10.066;2024-03-22T07:40:26;15.27;;;9.20;;
8895;SDS011;4484;48.928;10.066;2024-03-22T07:42:52;17.53;;;11.60;;
8895;SDS011;4484;48.928;10.066;2024-03-22T07:45:18;12.23;;;8.97;;
8895;SDS011;4484;48.928;10.066;2024-03-22T07:47:44;13.50;;;8.77;;
8895;SDS011;4484;48.928;10.066;2024-03-22T07:50:09;16.13;;;7.87;;
8895;SDS011;4484;48.928;10.066;2024-03-22T07:52:35;10.80;;;7.00;;
8895;SDS011;4484;48.928;10.066;2024-03-22T07:55:01;12.77;;;7.20;;
8895;SDS011;4484;48.928;10.066;2024-03-22T07:57:28;11.27;;;7.60;;
8895;SDS011;4484;48.928;10.066;2024-03-22T07:59:56;9.53;;;7.20;;
8895;SDS011;4484;48.928;10.066;2024-03-22T08:02:23;9.67;;;7.03;;
8895;SDS011;4484;48.928;10.066;2024-03-22T08:04:49;10.30;;;6.23;;
8895;SDS011;4484;48.928;10.066;2024-03-22T08:07:15;11.07;;;7.73;;
8895;SDS011;4484;48.928;10.066;2024-03-22T08:09:40;12.27;;;7.60;;
8895;SDS011;4484;48.928;10.066;2024-03-22T08:12:06;16.17;;;9.50;;
8895;SDS011;4484;48.928;10.066;2024-03-22T08:14:33;8.17;;;6.90;;
8895;SDS011;4484;48.928;10.066;2024-03-22T08:16:59;12.13;;;6.70;;
8895;SDS011;4484;48.928;10.066;2024-03-22T08:19:24;9.03;;;6.27;;
8895;SDS011;4484;48.928;10.066;2024-03-22T08:21:50;9.90;;;7.07;;
8895;SDS011;4484;48.928;10.066;2024-03-22T08:24:16;12.47;;;8.47;;
8895;SDS011;4484;48.928;10.066;2024-03-22T08:26:44;11.17;;;6.67;;
8895;SDS011;4484;48.928;10.066;2024-03-22T08:29:12;7.80;;;6.43;;
8895;SDS011;4484;48.928;10.066;2024-03-22T08:31:40;10.43;;;7.40;;
8895;SDS011;4484;48.928;10.066;2024-03-22T08:34:06;10.10;;;6.20;;
8895;SDS011;4484;48.928;10.066;2024-03-22T08:36:32;9.20;;;6.33;;
8895;SDS011;4484;48.928;10.066;2024-03-22T08:38:58;9.13;;;6.30;;
8895;SDS011;4484;48.928;10.066;2024-03-22T08:41:24;9.57;;;6.20;;
8895;SDS011;4484;48.928;10.066;2024-03-22T08:43:50;7.43;;;5.77;;
8895;SDS011;4484;48.928;10.066;2024-03-22T08:46:16;6.27;;;5.57;;
8895;SDS011;4484;48.928;10.066;2024-03-22T08:48:42;7.77;;;5.63;;
8895;SDS011;4484;48.928;10.066;2024-03-22T08:51:07;7.07;;;5.30;;
8895;SDS011;4484;48.928;10.066;2024-03-22T08:53:33;6.57;;;4.67;;
8895;SDS011;4484;48.928;10.066;2024-03-22T08:56:00;6.40;;;4.40;;
8895;SDS011;4484;48.928;10.066;2024-03-22T08:58:26;6.03;;;4.40;;
8895;SDS011;4484;48.928;10.066;2024-03-22T09:00:52;9.30;;;4.57;;
8895;SDS011;4484;48.928;10.066;2024-03-22T09:03:17;5.57;;;4.13;;
8895;SDS011;4484;48.928;10.066;2024-03-22T09:05:43;7.00;;;3.40;;
8895;SDS011;4484;48.928;10.066;2024-03-22T09:08:09;5.33;;;3.80;;
8895;SDS011;4484;48.928;10.066;2024-03-22T09:10:35;4.40;;;3.47;;
8895;SDS011;4484;48.928;10.066;2024-03-22T09:13:01;4.53;;;3.63;;
8895;SDS011;4484;48.928;10.066;2024-03-22T09:15:27;4.93;;;4.23;;
8895;SDS011;4484;48.928;10.066;2024-03-22T09:17:53;5.03;;;3.75;;
8895;SDS011;4484;48.928;10.066;2024-03-22T09:20:19;5.40;;;4.00;;
8895;SDS011;4484;48.928;10.066;2024-03-22T09:22:45;4.90;;;3.87;;
8895;SDS011;4484;48.928;10.066;2024-03-22T09:25:11;6.47;;;4.80;;
8895;SDS011;4484;48.928;10.066;2024-03-22T09:27:37;7.57;;;4.37;;
8895;SDS011;4484;48.928;10.066;2024-03-22T09:30:03;5.13;;;4.00;;
8895;SDS011;4484;48.928;10.066;2024-03-22T09:32:30;4.20;;;3.80;;
8895;SDS011;4484;48.928;10.066;2024-03-22T09:34:56;5.70;;;4.03;;
8895;SDS011;4484;48.928;10.066;2024-03-22T09:37:22;6.40;;;4.30;;
8895;SDS011;4484;48.928;10.066;2024-03-22T09:39:48;4.60;;;3.90;;
8895;SDS011;4484;48.928;10.066;2024-03-22T09:42:16;5.27;;;4.10;;
8895;SDS011;4484;48.928;10.066;2024-03-22T09:44:46;5.30;;;3.90;;
8895;SDS011;4484;48.928;10.066;2024-03-22T09:47:17;7.67;;;3.80;;
8895;SDS011;4484;48.928;10.066;2024-03-22T09:49:45;8.90;;;3.77;;
8895;SDS011;4484;48.928;10.066;2024-03-22T09:52:13;6.22;;;3.80;;
8895;SDS011;4484;48.928;10.066;2024-03-22T09:54:43;6.88;;;4.15;;
8895;SDS011;4484;48.928;10.066;2024-03-22T09:57:12;4.87;;;3.50;;
8895;SDS011;4484;48.928;10.066;2024-03-22T09:59:43;6.70;;;4.00;;
8895;SDS011;4484;48.928;10.066;2024-03-22T10:02:13;6.95;;;3.80;;
8895;SDS011;4484;48.928;10.066;2024-03-22T10:04:42;4.63;;;3.42;;
8895;SDS011;4484;48.928;10.066;2024-03-22T10:07:08;7.25;;;3.50;;
8895;SDS011;4484;48.928;10.066;2024-03-22T10:09:39;7.05;;;3.30;;
8895;SDS011;4484;48.928;10.066;2024-03-22T10:12:05;8.52;;;3.42;;
8895;SDS011;4484;48.928;10.066;2024-03-22T10:14:31;4.00;;;3.17;;
8895;SDS011;4484;48.928;10.066;2024-03-22T10:16:58;5.30;;;3.67;;
8895;SDS011;4484;48.928;10.066;2024-03-22T10:19:25;4.70;;;3.22;;
8895;SDS011;4484;48.928;10.066;2024-03-22T10:24:25;4.80;;;3.95;;
8895;SDS011;4484;48.928;10.066;2024-03-22T10:26:52;14.70;;;3.97;;
8895;SDS011;4484;48.928;10.066;2024-03-22T10:29:18;8.95;;;3.55;;
8895;SDS011;4484;48.928;10.066;2024-03-22T10:31:45;8.45;;;3.53;;
8895;SDS011;4484;48.928;10.066;2024-03-22T10:34:13;4.65;;;2.90;;
8895;SDS011;4484;48.928;10.066;2024-03-22T10:36:40;6.30;;;2.63;;
8895;SDS011;4484;48.928;10.066;2024-03-22T10:39:07;3.25;;;2.60;;
8895;SDS011;4484;48.928;10.066;2024-03-22T10:41:34;6.28;;;3.25;;
8895;SDS011;4484;48.928;10.066;2024-03-22T10:44:00;4.68;;;3.15;;
8895;SDS011;4484;48.928;10.066;2024-03-22T10:46:29;6.40;;;3.75;;
8895;SDS011;4484;48.928;10.066;2024-03-22T10:48:58;4.07;;;3.10;;
8895;SDS011;4484;48.928;10.066;2024-03-22T10:51:29;7.68;;;4.43;;
8895;SDS011;4484;48.928;10.066;2024-03-22T10:53:57;5.07;;;3.50;;
8895;SDS011;4484;48.928;10.066;2024-03-22T10:56:26;6.28;;;3.38;;
8895;SDS011;4484;48.928;10.066;2024-03-22T10:58:53;4.70;;;3.42;;
8895;SDS011;4484;48.928;10.066;2024-03-22T11:01:22;5.25;;;3.25;;
8895;SDS011;4484;48.928;10.066;2024-03-22T11:03:48;5.60;;;3.50;;
8895;SDS011;4484;48.928;10.066;2024-03-22T11:06:17;6.35;;;2.78;;
8895;SDS011;4484;48.928;10.066;2024-03-22T11:08:50;3.97;;;2.63;;
8895;SDS011;4484;48.928;10.066;2024-03-22T11:11:17;6.03;;;2.58;;
8895;SDS011;4484;48.928;10.066;2024-03-22T11:13:47;4.18;;;2.90;;
8895;SDS011;4484;48.928;10.066;2024-03-22T11:16:14;4.18;;;2.67;;
8895;SDS011;4484;48.928;10.066;2024-03-22T11:18:40;4.20;;;3.05;;
8895;SDS011;4484;48.928;10.066;2024-03-22T11:21:06;5.18;;;2.55;;
8895;SDS011;4484;48.928;10.066;2024-03-22T11:23:34;3.63;;;2.80;;
8895;SDS011;4484;48.928;10.066;2024-03-22T11:26:02;3.75;;;2.55;;
8895;SDS011;4484;48.928;10.066;2024-03-22T11:28:29;3.78;;;2.40;;
8895;SDS011;4484;48.928;10.066;2024-03-22T11:30:55;4.68;;;2.40;;
8895;SDS011;4484;48.928;10.066;2024-03-22T11:33:22;3.60;;;2.35;;
8895;SDS011;4484;48.928;10.066;2024-03-22T11:35:48;4.88;;;2.35;;
8895;SDS011;4484;48.928;10.066;2024-03-22T11:38:15;4.25;;;2.70;;
8895;SDS011;4484;48.928;10.066;2024-03-22T11:40:42;4.15;;;2.10;;
8895;SDS011;4484;48.928;10.066;2024-03-22T11:43:09;4.10;;;2.67;;
8895;SDS011;4484;48.928;10.066;2024-03-22T11:45:36;3.17;;;2.35;;
8895;SDS011;4484;48.928;10.066;2024-03-22T11:48:03;5.22;;;2.63;;
8895;SDS011;4484;48.928;10.066;2024-03-22T11:50:29;5.10;;;2.40;;
8895;SDS011;4484;48.928;10.066;2024-03-22T11:52:55;3.30;;;2.35;;
8895;SDS011;4484;48.928;10.066;2024-03-22T11:55:21;6.82;;;2.90;;
8895;SDS011;4484;48.928;10.066;2024-03-22T11:57:50;3.97;;;2.78;;
8895;SDS011;4484;48.928;10.066;2024-03-22T12:00:17;4.88;;;2.90;;
8895;SDS011;4484;48.928;10.066;2024-03-22T12:02:44;4.47;;;2.38;;
8895;SDS011;4484;48.928;10.066;2024-03-22T12:05:11;3.55;;;2.58;;
8895;SDS011;4484;48.928;10.066;2024-03-22T12:07:37;4.00;;;2.35;;
8895;SDS011;4484;48.928;10.066;2024-03-22T12:10:05;2.97;;;2.30;;
8895;SDS011;4484;48.928;10.066;2024-03-22T12:12:32;4.45;;;2.40;;
8895;SDS011;4484;48.928;10.066;2024-03-22T12:14:58;4.75;;;2.75;;
8895;SDS011;4484;48.928;10.066;2024-03-22T12:17:23;5.90;;;2.80;;
8895;SDS011;4484;48.928;10.066;2024-03-22T12:19:49;3.40;;;2.50;;
8895;SDS011;4484;48.928;10.066;2024-03-22T12:22:15;3.70;;;2.25;;
8895;SDS011;4484;48.928;10.066;2024-03-22T12:24:42;3.22;;;2.92;;
8895;SDS011;4484;48.928;10.066;2024-03-22T12:27:08;5.45;;;2.35;;
8895;SDS011;4484;48.928;10.066;2024-03-22T12:29:34;3.72;;;2.53;;
8895;SDS011;4484;48.928;10.066;2024-03-22T12:32:01;3.85;;;2.45;;
8895;SDS011;4484;48.928;10.066;2024-03-22T12:34:29;4.55;;;2.40;;
8895;SDS011;4484;48.928;10.066;2024-03-22T12:36:56;6.72;;;3.00;;
8895;SDS011;4484;48.928;10.066;2024-03-22T12:39:21;4.80;;;3.45;;
8895;SDS011;4484;48.928;10.066;2024-03-22T12:41:47;4.47;;;2.60;;
8895;SDS011;4484;48.928;10.066;2024-03-22T12:44:13;3.65;;;2.72;;
8895;SDS011;4484;48.928;10.066;2024-03-22T12:46:39;3.03;;;2.10;;
8895;SDS011;4484;48.928;10.066;2024-03-22T12:49:07;3.55;;;2.08;;
8895;SDS011;4484;48.928;10.066;2024-03-22T12:51:34;2.08;;;1.88;;
8895;SDS011;4484;48.928;10.066;2024-03-22T12:54:01;2.63;;;2.20;;
8895;SDS011;4484;48.928;10.066;2024-03-22T12:56:28;4.55;;;2.38;;
8895;SDS011;4484;48.928;10.066;2024-03-22T12:58:54;2.92;;;1.58;;
8895;SDS011;4484;48.928;10.066;2024-03-22T13:01:20;2.47;;;1.80;;
8895;SDS011;4484;48.928;10.066;2024-03-22T13:03:46;3.33;;;2.13;;
8895;SDS011;4484;48.928;10.066;2024-03-22T13:06:12;2.53;;;1.80;;
8895;SDS011;4484;48.928;10.066;2024-03-22T13:08:38;1.88;;;1.70;;
8895;SDS011;4484;48.928;10.066;2024-03-22T13:11:04;2.17;;;1.63;;
8895;SDS011;4484;48.928;10.066;2024-03-22T13:13:33;2.83;;;2.13;;
8895;SDS011;4484;48.928;10.066;2024-03-22T13:15:59;2.47;;;1.80;;
8895;SDS011;4484;48.928;10.066;2024-03-22T13:18:28;3.08;;;1.58;;
8895;SDS011;4484;48.928;10.066;2024-03-22T13:20:54;3.53;;;2.08;;
8895;SDS011;4484;48.928;10.066;2024-03-22T13:23:20;5.00;;;1.90;;
8895;SDS011;4484;48.928;10.066;2024-03-22T13:25:46;2.78;;;1.77;;
8895;SDS011;4484;48.928;10.066;2024-03-22T13:28:12;2.17;;;1.60;;
8895;SDS011;4484;48.928;10.066;2024-03-22T13:30:38;2.22;;;1.95;;
8895;SDS011;4484;48.928;10.066;2024-03-22T13:33:04;5.70;;;2.20;;
8895;SDS011;4484;48.928;10.066;2024-03-22T13:35:30;3.67;;;2.50;;
8895;SDS011;4484;48.928;10.066;2024-03-22T13:37:58;2.92;;;2.63;;
8895;SDS011;4484;48.928;10.066;2024-03-22T13:40:25;3.80;;;2.60;;
8895;SDS011;4484;48.928;10.066;2024-03-22T13:42:53;6.20;;;2.85;;
8895;SDS011;4484;48.928;10.066;2024-03-22T13:45:19;3.50;;;2.80;;
8895;SDS011;4484;48.928;10.066;2024-03-22T13:47:45;4.53;;;2.45;;
8895;SDS011;4484;48.928;10.066;2024-03-22T13:50:11;6.55;;;3.38;;
8895;SDS011;4484;48.928;10.066;2024-03-22T13:52:37;5.40;;;3.30;;
8895;SDS011;4484;48.928;10.066;2024-03-22T13:55:03;5.38;;;3.42;;
8895;SDS011;4484;48.928;10.066;2024-03-22T13:57:30;4.30;;;2.85;;
8895;SDS011;4484;48.928;10.066;2024-03-22T13:59:56;6.30;;;3.50;;
8895;SDS011;4484;48.928;10.066;2024-03-22T14:02:23;4.83;;;3.00;;
8895;SDS011;4484;48.928;10.066;2024-03-22T14:04:49;6.00;;;3.07;;
8895;SDS011;4484;48.928;10.066;2024-03-22T14:07:14;3.83;;;3.03;;
8895;SDS011;4484;48.928;10.066;2024-03-22T14:09:40;6.03;;;2.90;;
8895;SDS011;4484;48.928;10.066;2024-03-22T14:12:08;4.03;;;3.00;;
8895;SDS011;4484;48.928;10.066;2024-03-22T14:14:34;5.00;;;2.70;;
8895;SDS011;4484;48.928;10.066;2024-03-22T14:17:00;4.00;;;2.63;;
8895;SDS011;4484;48.928;10.066;2024-03-22T14:19:26;4.10;;;2.83;;
8895;SDS011;4484;48.928;10.066;2024-03-22T14:21:52;4.50;;;3.03;;
8895;SDS011;4484;48.928;10.066;2024-03-22T14:24:18;6.03;;;3.27;;
8895;SDS011;4484;48.928;10.066;2024-03-22T14:26:44;4.57;;;3.00;;
8895;SDS011;4484;48.928;10.066;2024-03-22T14:29:10;4.73;;;3.20;;
8895;SDS011;4484;48.928;10.066;2024-03-22T14:31:39;4.22;;;2.78;;
8895;SDS011;4484;48.928;10.066;2024-03-22T14:34:05;12.67;;;3.87;;
8895;SDS011;4484;48.928;10.066;2024-03-22T14:36:32;6.73;;;3.73;;
8895;SDS011;4484;48.928;10.066;2024-03-22T14:38:58;10.10;;;3.53;;
8895;SDS011;4484;48.928;10.066;2024-03-22T14:41:24;7.87;;;3.30;;
8895;SDS011;4484;48.928;10.066;2024-03-22T14:43:50;11.80;;;3.03;;
8895;SDS011;4484;48.928;10.066;2024-03-22T14:46:16;5.77;;;3.67;;
8895;SDS011;4484;48.928;10.066;2024-03-22T14:48:45;3.47;;;2.50;;
8895;SDS011;4484;48.928;10.066;2024-03-22T14:51:11;3.63;;;2.70;;
8895;SDS011;4484;48.928;10.066;2024-03-22T14:53:37;6.50;;;2.63;;
8895;SDS011;4484;48.928;10.066;2024-03-22T14:56:03;2.55;;;2.20;;